createdAt,value
2023-05-22T00:01:09.693Z,94.68
2023-05-22T00:03:37.400Z,95.69
2023-05-22T00:06:06.404Z,96.68
2023-05-22T00:08:33.753Z,98.32
2023-05-22T00:11:01.703Z,98.74
2023-05-22T00:13:29.086Z,98.42
2023-05-22T00:15:56.810Z,97.42
2023-05-22T00:18:25.713Z,97.83
2023-05-22T00:20:53.746Z,97.53
2023-05-22T00:23:22.095Z,96.53
2023-05-22T00:25:50.943Z,99.44
2023-05-22T00:28:18.296Z,98.74
2023-05-22T00:30:46.102Z,97.59
2023-05-22T00:33:13.750Z,97.02
2023-05-22T00:35:41.054Z,97.36
2023-05-22T00:38:09.312Z,98.22
2023-05-22T00:40:37.325Z,97.74
2023-05-22T00:43:08.811Z,97.38
2023-05-22T00:45:36.942Z,99.08
2023-05-22T00:48:04.600Z,98.88
2023-05-22T00:50:32.016Z,98.72
2023-05-22T00:53:01.596Z,96.34
2023-05-22T00:55:29.022Z,96.83
2023-05-22T00:57:57.667Z,97.56
2023-05-22T01:00:25.844Z,96.86
2023-05-22T01:02:53.289Z,98.93
2023-05-22T01:05:21.247Z,98.77
2023-05-22T01:07:49.027Z,96.52
2023-05-22T01:10:16.443Z,97.69
2023-05-22T01:13:06.965Z,98.17
2023-05-22T01:15:54.541Z,98.20
2023-05-22T01:18:45.407Z,96.65
2023-05-22T01:21:30.410Z,97.21
2023-05-22T01:24:12.284Z,97.15
2023-05-22T01:26:54.249Z,99.98
2023-05-22T01:29:43.400Z,100.00
2023-05-22T01:32:16.705Z,100.00
2023-05-22T01:34:46.335Z,100.00
2023-05-22T01:37:16.633Z,100.00
2023-05-22T01:39:45.590Z,100.00
2023-05-22T01:42:13.372Z,100.00
2023-05-22T01:44:41.663Z,99.88
2023-05-22T01:47:09.160Z,98.75
2023-05-22T01:49:37.036Z,98.18
2023-05-22T01:52:12.438Z,98.80
2023-05-22T01:54:45.600Z,98.55
2023-05-22T01:57:16.775Z,98.75
2023-05-22T01:59:50.929Z,99.46
2023-05-22T02:02:21.501Z,98.24
2023-05-22T02:05:05.022Z,97.73
2023-05-22T02:07:36.746Z,98.87
2023-05-22T02:10:07.431Z,99.22
2023-05-22T02:12:37.705Z,99.35
2023-05-22T02:15:07.213Z,98.78
2023-05-22T02:17:40.744Z,99.06
2023-05-22T02:20:17.054Z,98.50
2023-05-22T02:22:47.157Z,98.72
2023-05-22T02:25:17.267Z,99.33
2023-05-22T02:27:47.124Z,99.20
2023-05-22T02:30:15.458Z,97.87
2023-05-22T02:32:43.804Z,97.67
2023-05-22T02:35:11.642Z,98.35
2023-05-22T02:37:39.041Z,99.20
2023-05-22T02:40:08.155Z,99.60
2023-05-22T02:42:36.464Z,100.00
2023-05-22T02:45:04.315Z,100.00
2023-05-22T02:47:34.118Z,99.75
2023-05-22T02:50:02.011Z,99.11
2023-05-22T02:52:31.765Z,98.79
2023-05-22T02:55:18.026Z,98.52
2023-05-22T02:57:47.763Z,98.11
2023-05-22T03:00:15.429Z,97.63
2023-05-22T03:02:43.016Z,96.86
2023-05-22T03:05:11.024Z,96.11
2023-05-22T03:07:38.597Z,96.34
2023-05-22T03:10:07.063Z,96.09
2023-05-22T03:12:34.715Z,95.84
2023-05-22T03:15:02.604Z,95.90
2023-05-22T03:17:31.459Z,95.66
2023-05-22T03:19:59.236Z,95.99
2023-05-22T03:22:26.878Z,97.11
2023-05-22T03:24:54.352Z,97.12
2023-05-22T03:27:22.106Z,98.19
2023-05-22T03:29:49.740Z,98.60
2023-05-22T03:32:17.877Z,98.71
2023-05-22T03:34:47.922Z,98.81
2023-05-22T03:37:16.024Z,97.38
2023-05-22T03:39:43.520Z,97.01
2023-05-22T03:42:15.735Z,98.92
2023-05-22T03:44:43.118Z,99.42
2023-05-22T03:47:11.255Z,98.92
2023-05-22T03:49:38.633Z,99.06
2023-05-22T03:52:06.250Z,98.07
2023-05-22T03:54:34.203Z,98.66
2023-05-22T03:57:03.110Z,98.29
2023-05-22T03:59:30.525Z,96.80
2023-05-22T04:01:58.298Z,97.17
2023-05-22T04:04:27.080Z,97.12
2023-05-22T04:06:54.572Z,95.77
2023-05-22T04:09:21.908Z,96.61
2023-05-22T04:11:49.791Z,97.27
2023-05-22T04:14:17.179Z,97.44
2023-05-22T04:16:50.444Z,97.84
2023-05-22T04:19:22.352Z,99.46
2023-05-22T04:21:50.032Z,99.64
2023-05-22T04:24:27.911Z,99.10
2023-05-22T04:26:56.360Z,98.18
2023-05-22T04:29:38.090Z,98.01
2023-05-22T04:32:10.805Z,97.61
2023-05-22T04:35:02.494Z,97.10
2023-05-22T04:37:31.987Z,96.79
2023-05-22T04:40:05.954Z,98.47
2023-05-22T04:42:34.934Z,98.29
2023-05-22T04:45:04.161Z,97.96
2023-05-22T04:48:05.569Z,99.97
2023-05-22T04:50:47.114Z,99.37
2023-05-22T04:53:18.462Z,99.32
2023-05-22T04:55:51.375Z,98.23
2023-05-22T04:58:19.257Z,97.52
2023-05-22T05:00:47.644Z,97.27
2023-05-22T05:03:15.335Z,96.07
2023-05-22T05:05:42.845Z,95.56
2023-05-22T05:08:11.492Z,94.74
2023-05-22T05:10:39.712Z,94.72
2023-05-22T05:13:38.178Z,95.21
2023-05-22T05:16:06.823Z,93.55
2023-05-22T05:18:35.161Z,94.26
2023-05-22T05:21:02.793Z,93.59
2023-05-22T05:23:30.821Z,93.33
2023-05-22T05:25:58.419Z,91.57
2023-05-22T05:28:26.439Z,92.79
2023-05-22T05:30:54.840Z,93.21
2023-05-22T05:33:22.412Z,92.34
2023-05-22T05:35:52.827Z,89.50
2023-05-22T05:38:23.674Z,88.63
2023-05-22T05:40:53.854Z,89.61
2023-05-22T05:43:25.565Z,89.63
2023-05-22T05:46:00.478Z,89.82
2023-05-22T05:48:29.109Z,88.07
2023-05-22T05:50:57.430Z,86.92
2023-05-22T05:53:32.046Z,82.54
2023-05-22T05:56:00.523Z,82.27
2023-05-22T05:58:29.942Z,83.85
2023-05-22T06:00:57.610Z,86.22
2023-05-22T06:03:29.995Z,87.54
2023-05-22T06:06:00.777Z,86.37
2023-05-22T06:08:34.665Z,88.53
2023-05-22T06:11:04.861Z,90.78
2023-05-22T06:13:32.712Z,85.04
2023-05-22T06:16:03.536Z,81.94
2023-05-22T06:18:33.246Z,79.19
2023-05-22T06:21:01.182Z,80.79
2023-05-22T06:23:36.641Z,80.04
2023-05-22T06:26:05.495Z,81.51
2023-05-22T06:28:32.971Z,79.82
2023-05-22T06:31:02.068Z,79.13
2023-05-22T06:33:30.245Z,79.06
2023-05-22T06:35:58.825Z,78.74
2023-05-22T06:38:26.897Z,79.29
2023-05-22T06:40:54.944Z,79.76
2023-05-22T06:43:23.172Z,80.05
2023-05-22T06:45:51.317Z,73.37
2023-05-22T06:48:48.556Z,72.62
2023-05-22T06:51:28.981Z,73.90
2023-05-22T06:53:59.715Z,70.44
2023-05-22T06:56:29.178Z,68.62
2023-05-22T06:58:58.971Z,63.73
2023-05-22T07:01:27.192Z,64.38
2023-05-22T07:04:07.382Z,61.02
2023-05-22T07:06:41.908Z,65.19
2023-05-22T07:09:11.684Z,61.69
2023-05-22T07:11:40.214Z,61.08
2023-05-22T07:14:08.298Z,57.18
2023-05-22T07:16:38.987Z,58.94
2023-05-22T07:19:08.943Z,53.44
2023-05-22T07:21:36.714Z,53.91
2023-05-22T07:24:08.574Z,54.33
2023-05-22T07:26:37.270Z,54.67
2023-05-22T07:29:05.949Z,54.97
2023-05-22T07:31:34.558Z,51.85
2023-05-22T07:34:02.467Z,54.48
2023-05-22T07:36:32.825Z,52.09
2023-05-22T07:39:22.417Z,54.07
2023-05-22T07:41:57.897Z,55.12
2023-05-22T07:44:35.979Z,54.75
2023-05-22T07:47:08.001Z,51.70
2023-05-22T07:49:37.903Z,54.55
2023-05-22T07:52:06.141Z,52.33
2023-05-22T07:54:38.508Z,50.96
2023-05-22T07:57:09.388Z,52.09
2023-05-22T07:59:37.843Z,51.90
2023-05-22T08:02:06.267Z,53.94
2023-05-22T08:04:34.202Z,54.83
2023-05-22T08:07:01.842Z,53.49
2023-05-22T08:09:31.028Z,54.71
2023-05-22T08:12:00.231Z,50.44
2023-05-22T08:14:28.633Z,51.61
2023-05-22T08:16:57.230Z,50.98
2023-05-22T08:19:25.389Z,56.09
2023-05-22T08:21:58.297Z,53.15
2023-05-22T08:24:30.728Z,52.72
2023-05-22T08:26:58.912Z,50.66
2023-05-22T08:29:36.794Z,51.30
2023-05-22T08:32:05.222Z,49.49
2023-05-22T08:34:34.466Z,51.48
2023-05-22T08:37:01.866Z,49.28
2023-05-22T08:39:29.302Z,52.05
2023-05-22T08:41:57.519Z,49.84
2023-05-22T08:44:25.941Z,49.80
2023-05-22T08:46:56.764Z,50.06
2023-05-22T08:49:25.330Z,49.41
2023-05-22T08:52:13.117Z,49.85
2023-05-22T08:54:46.181Z,52.38
2023-05-22T08:57:13.794Z,54.05
2023-05-22T08:59:43.979Z,51.60
2023-05-22T09:02:16.929Z,50.48
2023-05-22T09:04:44.791Z,47.66
2023-05-22T09:07:12.192Z,46.53
2023-05-22T09:09:40.118Z,46.03
2023-05-22T09:12:09.920Z,47.66
2023-05-22T09:14:42.225Z,45.67
2023-05-22T09:17:12.107Z,45.99
2023-05-22T09:19:43.900Z,45.46
2023-05-22T09:22:19.747Z,45.48
2023-05-22T09:24:51.782Z,47.46
2023-05-22T09:27:23.667Z,46.36
2023-05-22T09:29:53.001Z,48.09
2023-05-22T09:32:21.204Z,47.13
2023-05-22T09:34:49.099Z,46.41
2023-05-22T09:37:17.607Z,48.66
2023-05-22T09:39:46.249Z,49.15
2023-05-22T09:42:17.738Z,49.93
2023-05-22T09:44:49.754Z,49.34
2023-05-22T09:47:17.662Z,48.09
2023-05-22T09:49:46.406Z,48.17
2023-05-22T09:52:13.904Z,47.75
2023-05-22T09:54:58.004Z,45.57
2023-05-22T09:57:28.951Z,45.49
2023-05-22T09:59:58.979Z,43.83
2023-05-22T10:02:41.327Z,42.92
2023-05-22T10:05:10.197Z,43.61
2023-05-22T10:07:46.252Z,40.56
2023-05-22T10:10:19.860Z,40.92
2023-05-22T10:13:01.286Z,45.89
2023-05-22T10:15:30.113Z,42.02
2023-05-22T10:17:59.570Z,42.57
2023-05-22T10:20:34.209Z,41.99
2023-05-22T10:23:04.292Z,42.37
2023-05-22T10:25:44.398Z,42.46
2023-05-22T10:28:30.146Z,41.55
2023-05-22T10:31:06.709Z,41.72
2023-05-22T10:33:45.295Z,43.35
2023-05-22T10:37:05.989Z,43.16
2023-05-22T10:40:08.079Z,42.21
2023-05-22T10:42:38.046Z,44.01
2023-05-22T10:45:09.523Z,43.54
2023-05-22T10:48:00.139Z,44.58
2023-05-22T10:50:30.871Z,43.78
2023-05-22T10:53:25.634Z,45.64
2023-05-22T10:55:55.309Z,47.70
2023-05-22T10:58:36.649Z,53.85
2023-05-22T11:01:17.841Z,56.52
2023-05-22T11:03:53.681Z,61.25
2023-05-22T11:06:45.769Z,65.14
2023-05-22T11:09:30.459Z,69.29
2023-05-22T11:12:18.329Z,70.15
2023-05-22T11:14:50.232Z,73.08
2023-05-22T11:17:26.226Z,74.29
2023-05-22T11:20:02.884Z,73.11
2023-05-22T11:22:41.256Z,77.29
2023-05-22T11:25:19.975Z,71.63
2023-05-22T11:27:48.632Z,70.61
2023-05-22T11:30:17.511Z,69.20
2023-05-22T11:32:51.708Z,74.43
2023-05-22T11:35:23.777Z,74.28
2023-05-22T11:37:52.814Z,74.22
2023-05-22T11:40:29.842Z,74.04
2023-05-22T11:43:07.692Z,74.76
2023-05-22T11:45:38.222Z,73.17
2023-05-22T11:48:05.976Z,72.09
2023-05-22T11:50:42.383Z,69.28
2023-05-22T11:53:11.203Z,71.60
2023-05-22T11:55:38.658Z,70.29
2023-05-22T11:58:06.327Z,72.22
2023-05-22T12:00:34.153Z,71.44
2023-05-22T12:03:02.115Z,68.52
2023-05-22T12:05:32.412Z,68.27
2023-05-22T12:08:00.138Z,69.50
2023-05-22T12:10:27.913Z,69.64
2023-05-22T12:12:55.440Z,62.57
2023-05-22T12:15:24.645Z,59.88
2023-05-22T12:17:55.976Z,63.50
2023-05-22T12:20:23.497Z,59.49
2023-05-22T12:22:50.946Z,64.41
2023-05-22T12:25:20.341Z,63.89
2023-05-22T12:27:47.975Z,64.09
2023-05-22T12:30:16.065Z,64.03
2023-05-22T12:32:49.276Z,62.93
2023-05-22T12:35:17.811Z,65.66
2023-05-22T12:37:50.571Z,67.15
2023-05-22T12:40:18.423Z,66.00
2023-05-22T12:42:46.349Z,66.77
2023-05-22T12:45:14.135Z,64.59
2023-05-22T12:47:41.604Z,62.17
2023-05-22T12:50:09.631Z,62.32
2023-05-22T12:52:37.061Z,63.30
2023-05-22T12:55:04.882Z,59.60
2023-05-22T12:57:32.574Z,60.20
2023-05-22T12:59:59.921Z,60.05
2023-05-22T13:02:27.592Z,57.78
2023-05-22T13:04:55.462Z,55.94
2023-05-22T13:07:22.937Z,54.03
2023-05-22T13:09:50.335Z,53.96
2023-05-22T13:12:19.503Z,52.72
2023-05-22T13:14:46.914Z,51.86
2023-05-22T13:17:14.342Z,52.58
2023-05-22T13:19:42.006Z,51.63
2023-05-22T13:22:09.484Z,49.32
2023-05-22T13:24:37.006Z,49.79
2023-05-22T13:27:04.855Z,50.88
2023-05-22T13:29:33.242Z,52.51
2023-05-22T13:32:01.634Z,53.30
2023-05-22T13:34:30.115Z,53.34
2023-05-22T13:36:57.678Z,52.57
2023-05-22T13:39:25.242Z,52.82
2023-05-22T13:41:53.608Z,51.16
2023-05-22T13:44:21.512Z,49.62
2023-05-22T13:46:49.346Z,49.86
2023-05-22T13:49:17.476Z,49.79
2023-05-22T13:51:44.956Z,47.65
2023-05-22T13:54:12.280Z,51.46
2023-05-22T13:56:40.015Z,47.59
2023-05-22T13:59:09.355Z,47.56
2023-05-22T14:01:37.033Z,45.92
2023-05-22T14:04:05.996Z,47.35
2023-05-22T14:06:33.395Z,46.64
2023-05-22T14:09:00.807Z,43.41
2023-05-22T14:11:28.653Z,42.84
2023-05-22T14:13:56.073Z,44.24
2023-05-22T14:16:23.519Z,41.89
2023-05-22T14:18:51.373Z,41.99
2023-05-22T14:21:21.522Z,41.29
2023-05-22T14:23:48.988Z,41.25
2023-05-22T14:26:16.784Z,41.45
2023-05-22T14:28:44.360Z,41.56
2023-05-22T14:31:11.811Z,39.65
2023-05-22T14:33:39.544Z,39.90
2023-05-22T14:36:07.119Z,42.95
2023-05-22T14:38:34.799Z,41.21
2023-05-22T14:41:05.214Z,40.25
2023-05-22T14:43:33.644Z,39.79
2023-05-22T14:46:01.253Z,38.15
2023-05-22T14:48:29.603Z,37.41
2023-05-22T14:50:56.954Z,37.71
2023-05-22T14:53:24.376Z,38.15
2023-05-22T14:55:52.095Z,36.64
2023-05-22T14:58:19.578Z,37.11
2023-05-22T15:00:47.484Z,36.57
2023-05-22T15:03:15.356Z,37.20
2023-05-22T15:05:42.768Z,38.63
2023-05-22T15:08:10.383Z,39.33
2023-05-22T15:10:38.097Z,48.82
2023-05-22T15:13:05.793Z,51.59
2023-05-22T15:15:33.486Z,53.28
2023-05-22T15:18:02.967Z,55.81
2023-05-22T15:20:31.379Z,56.07
2023-05-22T15:22:59.790Z,56.97
2023-05-22T15:25:30.492Z,57.98
2023-05-22T15:27:58.381Z,59.59
2023-05-22T15:30:25.873Z,61.45
2023-05-22T15:32:53.772Z,64.40
2023-05-22T15:35:21.222Z,65.64
2023-05-22T15:37:48.641Z,67.30
2023-05-22T15:40:16.475Z,67.67
2023-05-22T15:42:44.084Z,67.53
2023-05-22T15:45:11.579Z,69.33
2023-05-22T15:47:39.402Z,74.26
2023-05-22T15:50:07.249Z,74.56
2023-05-22T15:52:34.728Z,78.12
2023-05-22T15:55:02.548Z,79.46
2023-05-22T15:57:30.452Z,80.61
2023-05-22T15:59:57.873Z,79.65
2023-05-22T16:02:25.885Z,82.42
2023-05-22T16:04:54.479Z,81.59
2023-05-22T16:07:45.152Z,80.22
2023-05-22T16:10:23.362Z,82.07
2023-05-22T16:12:52.655Z,83.68
2023-05-22T16:15:20.580Z,88.32
2023-05-22T16:17:48.141Z,88.16
2023-05-22T16:20:15.727Z,89.69
2023-05-22T16:22:48.487Z,89.10
2023-05-22T16:25:17.040Z,89.11
2023-05-22T16:27:44.938Z,87.59
2023-05-22T16:30:17.142Z,89.10
2023-05-22T16:32:48.861Z,90.66
2023-05-22T16:35:16.632Z,87.70
2023-05-22T16:37:44.059Z,87.17
2023-05-22T16:40:12.232Z,90.36
2023-05-22T16:42:39.636Z,92.23
2023-05-22T16:45:07.809Z,90.93
2023-05-22T16:47:35.579Z,90.32
2023-05-22T16:50:03.310Z,92.83
2023-05-22T16:52:33.060Z,92.41
2023-05-22T16:55:01.493Z,91.81
2023-05-22T16:57:29.633Z,91.27
2023-05-22T16:59:57.965Z,91.60
2023-05-22T17:02:26.768Z,91.51
2023-05-22T17:04:54.725Z,92.03
2023-05-22T17:07:22.658Z,90.73
2023-05-22T17:09:51.412Z,91.70
2023-05-22T17:12:18.806Z,93.05
2023-05-22T17:14:46.873Z,90.91
2023-05-22T17:17:15.014Z,91.36
2023-05-22T17:19:42.723Z,91.82
2023-05-22T17:22:10.100Z,90.77
2023-05-22T17:24:38.054Z,91.94
2023-05-22T17:27:06.997Z,91.76
2023-05-22T17:29:34.972Z,91.14
2023-05-22T17:32:05.015Z,92.98
2023-05-22T17:34:33.891Z,93.19
2023-05-22T17:37:01.434Z,93.64
2023-05-22T17:39:30.147Z,94.38
2023-05-22T17:41:59.682Z,95.58
2023-05-22T17:44:28.206Z,95.29
2023-05-22T17:46:55.986Z,95.41
2023-05-22T17:49:23.572Z,94.61
2023-05-22T17:51:50.975Z,94.09
2023-05-22T17:54:18.967Z,93.68
2023-05-22T17:56:46.563Z,92.86
2023-05-22T17:59:14.103Z,93.27
2023-05-22T18:01:41.895Z,93.96
2023-05-22T18:04:11.471Z,95.26
2023-05-22T18:06:39.543Z,94.71
2023-05-22T18:09:08.226Z,96.78
2023-05-22T18:11:36.131Z,97.20
2023-05-22T18:14:03.893Z,100.00
2023-05-22T18:16:31.634Z,100.00
2023-05-22T18:18:59.672Z,100.00
2023-05-22T18:21:27.074Z,100.00
2023-05-22T18:23:55.915Z,100.00
2023-05-22T18:26:23.729Z,100.00
2023-05-22T18:28:51.337Z,100.00
2023-05-22T18:31:18.823Z,100.00
2023-05-22T18:33:46.844Z,100.00
2023-05-22T18:36:14.260Z,100.00
2023-05-22T18:38:41.819Z,100.00
2023-05-22T18:41:09.578Z,100.00
2023-05-22T18:43:36.945Z,100.00
2023-05-22T18:46:04.394Z,100.00
2023-05-22T18:48:33.335Z,100.00
2023-05-22T18:51:01.010Z,100.00
2023-05-22T18:53:28.511Z,100.00
2023-05-22T18:55:56.374Z,100.00
2023-05-22T18:58:23.906Z,100.00
2023-05-22T19:00:52.309Z,100.00
2023-05-22T19:03:20.109Z,98.39
2023-05-22T19:05:47.624Z,100.00
2023-05-22T19:08:14.962Z,100.00
2023-05-22T19:10:42.960Z,100.00
2023-05-22T19:13:10.557Z,100.00
2023-05-22T19:15:38.614Z,100.00
2023-05-22T19:18:06.477Z,100.00
2023-05-22T19:20:34.279Z,100.00
2023-05-22T19:23:01.900Z,100.00
2023-05-22T19:25:29.717Z,100.00
2023-05-22T19:27:57.117Z,100.00
2023-05-22T19:30:24.665Z,100.00
2023-05-22T19:32:56.054Z,100.00
2023-05-22T19:35:23.521Z,100.00
2023-05-22T19:37:50.998Z,100.00
2023-05-22T19:40:19.081Z,100.00
2023-05-22T19:42:46.725Z,100.00
2023-05-22T19:45:14.188Z,100.00
2023-05-22T19:47:42.009Z,100.00
2023-05-22T19:50:09.948Z,100.00
2023-05-22T19:52:37.384Z,100.00
2023-05-22T19:55:05.600Z,100.00
2023-05-22T19:57:33.073Z,100.00
2023-05-22T20:00:00.481Z,100.00
2023-05-22T20:02:28.504Z,100.00
2023-05-22T20:04:56.467Z,100.00
2023-05-22T20:07:23.959Z,100.00
2023-05-22T20:09:51.753Z,100.00
2023-05-22T20:12:19.511Z,100.00
2023-05-22T20:14:46.952Z,100.00
2023-05-22T20:17:14.553Z,100.00
2023-05-22T20:19:45.124Z,100.00
2023-05-22T20:22:12.585Z,100.00
2023-05-22T20:24:40.066Z,100.00
2023-05-22T20:27:07.803Z,100.00
2023-05-22T20:29:37.076Z,100.00
2023-05-22T20:32:04.777Z,100.00
2023-05-22T20:34:32.618Z,100.00
2023-05-22T20:37:00.257Z,100.00
2023-05-22T20:39:28.470Z,100.00
2023-05-22T20:41:56.351Z,100.00
2023-05-22T20:44:25.111Z,100.00
2023-05-22T20:46:53.578Z,100.00
2023-05-22T20:49:21.846Z,100.00
2023-05-22T20:51:54.588Z,100.00
2023-05-22T20:54:22.423Z,100.00
2023-05-22T20:56:50.367Z,100.00
2023-05-22T20:59:17.708Z,100.00
2023-05-22T21:01:45.491Z,100.00
2023-05-22T21:04:13.263Z,100.00
2023-05-22T21:06:40.835Z,100.00
2023-05-22T21:09:08.629Z,100.00
2023-05-22T21:11:36.142Z,100.00
2023-05-22T21:14:03.539Z,100.00
2023-05-22T21:16:31.291Z,100.00
2023-05-22T21:18:58.782Z,100.00
2023-05-22T21:21:26.196Z,100.00
2023-05-22T21:23:54.019Z,100.00
2023-05-22T21:26:23.204Z,100.00
2023-05-22T21:28:50.704Z,100.00
2023-05-22T21:31:18.498Z,100.00
2023-05-22T21:33:46.093Z,100.00
2023-05-22T21:36:13.477Z,100.00
2023-05-22T21:38:41.371Z,100.00
2023-05-22T21:41:08.777Z,100.00
2023-05-22T21:43:36.251Z,100.00
2023-05-22T21:46:04.107Z,100.00
2023-05-22T21:48:31.591Z,100.00
2023-05-22T21:50:59.114Z,100.00
2023-05-22T21:53:26.914Z,100.00
2023-05-22T21:55:54.269Z,100.00
2023-05-22T21:58:21.904Z,100.00
2023-05-22T22:00:49.687Z,100.00
2023-05-22T22:03:18.051Z,100.00
2023-05-22T22:05:45.615Z,100.00
2023-05-22T22:08:13.039Z,100.00
2023-05-22T22:10:41.102Z,100.00
2023-05-22T22:13:08.724Z,100.00
2023-05-22T22:15:36.865Z,100.00
2023-05-22T22:18:05.261Z,100.00
2023-05-22T22:20:43.576Z,100.00
2023-05-22T22:23:12.675Z,100.00
2023-05-22T22:25:40.032Z,100.00
2023-05-22T22:28:07.675Z,100.00
2023-05-22T22:30:35.666Z,100.00
2023-05-22T22:33:03.229Z,100.00
2023-05-22T22:35:30.938Z,100.00
2023-05-22T22:37:59.005Z,100.00
2023-05-22T22:40:27.033Z,100.00
2023-05-22T22:42:54.562Z,100.00
2023-05-22T22:45:22.275Z,100.00
2023-05-22T22:47:49.757Z,100.00
2023-05-22T22:50:17.392Z,100.00
2023-05-22T22:52:47.912Z,100.00
2023-05-22T22:55:15.867Z,100.00
2023-05-22T22:57:44.909Z,100.00
2023-05-22T23:00:13.659Z,100.00
2023-05-22T23:02:41.410Z,100.00
2023-05-22T23:05:09.384Z,100.00
2023-05-22T23:07:37.452Z,100.00
2023-05-22T23:10:05.229Z,100.00
2023-05-22T23:12:35.354Z,99.85
2023-05-22T23:15:03.938Z,100.00
2023-05-22T23:17:31.487Z,100.00
2023-05-22T23:19:58.895Z,100.00
2023-05-22T23:22:26.596Z,100.00
2023-05-22T23:24:54.014Z,100.00
2023-05-22T23:27:22.078Z,100.00
2023-05-22T23:29:49.763Z,100.00
2023-05-22T23:32:17.102Z,100.00
2023-05-22T23:34:44.366Z,100.00
2023-05-22T23:37:12.043Z,99.86
2023-05-22T23:39:39.437Z,100.00
2023-05-22T23:42:09.916Z,100.00
2023-05-22T23:44:37.667Z,100.00
2023-05-22T23:47:05.850Z,100.00
2023-05-22T23:49:33.347Z,100.00
2023-05-22T23:52:01.290Z,100.00
2023-05-22T23:54:28.902Z,100.00
2023-05-22T23:56:56.137Z,100.00
2023-05-22T23:59:23.826Z,100.00
